Timeline UpdatesTrip UpdatesNews PostsPvt PostsTravel TipsAdmin PostsConv PostsFollowed PostsChat RequestsBlog PostsPNR Posts

Disclaimer
Search
 
 
Thu Apr 24, 2014 05:44:45 ISTHomeTrainsΣChainsAtlasPNRForumGalleryNewsFAQTripsMembersLoginFeedback
No Recent News for this Train
Other Trains in the News **new
Latest...
Diversion of Trains o­n 25/26.09.2013:::: The 18238 Amritsar- Bilaspur Chattisgarh Express train will be diverted to run via Tapri- Shamli- Delhi Shahadra- Tilak Bridge.
Tue Sep 24, 2013 (07:42PM)
⇐ Return Journey: Train# 18237

18238/Chhattisgarh Express

Sep 16 2013 (7:54PM)
Change Departure Station:
Change Arrival Station:
Post a Train Travel TipPost a Train Travel Tip **new
Post a Comment/Question/Picture/VideoPost a Comment/Question/Picture/Video
Inaugural Run
Sat Jan 01, 1977
Pantry/Catering
✓ Pantry Car Avbl
✓ Catering Avbl
Loco/Rake Reversals
NGP/Nagpur Junction (9);
RSA - Rake Sharing
0
Rake/Coach Composition
LOCO-SP1-SLR-GS-S1-S2-S3-S4-S5-S6-S7-S8-S9-S10-PC-S11-S12-B3-B2-B1-A1-HA1-GS-SLR
Loco
ASR - NZM ---- TKD WDP4 NZM - NGP --- AJNI...
Read more...
WAP7 NGP - BSP --- ET WAP4 Author: Mahesh Gupta Entry# 295348
News    PNR    Forum    Time-Table    Availability    Fare Chart    Map    Arr/Dep History    Trips    Gallery    ΣChains    X/O    Timeline    
Travel Time: 12h 0m    32 halts    Distance: 514 km    Avg Speed: 42 km/hr
Type: Mail/Express
Zone: SECR/South East Central
Departs @ 16:15 (Avg 3m late)
Platform# 2
SMTWTFS
Amritsar Junction/ASR 
Arrives @ 04:15 +1 night (Avg 9m late)
Platform# 2
SMTWTFS
Delhi Hazrat Nizamuddin/NZM 

32 halts. 79 intermediate Stations between Amritsar Junction and Delhi Hazrat Nizamuddin

Show ALL intermediate Stations  Show Old Time-Table

#CodeStation NameX/OArrivesAvgDepartsAvgHaltPFDay#KmSpeedElevZoneAddress
1ASR»Amritsar Junction (5)»  -16:15+3210.077233mNRAmritsar 143002, Punjab
2JNLJandiala (2)  16:30+1216:32+122m2119.280238mNRJandiala, Punjab
3BEASBeas Junction (2)  16:50+1516:52+152m2143.061238mNRBeas, Punjab
4KREKartarpur (2)X  17:13+1417:15+142m1164.568236mNRKartarpur, Punjab
5JUCJalandhar City Junction (5)X  17:28+1717:35+207m2179.122239mNRJalandhar 144001, Punjab
6JRCJalandhar Cantt. Junction (3)X  17:48+1617:50+262m2184.065239mNRNear Rama Mandi, Punjab
7PGWPhagwara Junction (3)X  18:05+2718:07+272m11100.342245mNRPhagwara, Punjab
8GRYGoraya (2)XO  18:21+2518:23+282m11110.133240mNRGoraya, Punjab
9PHRPhillaur Junction (3)  18:46+1818:48+182m11122.846246mNRPhillaur, Punjab
10LDHLudhiana Junction (7)X  19:05+1819:15+1810m11135.922246mNRLudhiana 141001, Punjab
11SNLSanehwal (3)X  19:56+119:58+42m21151.149260mNRLudhiana, Punjab
12DOADoraha (2)X  20:07+820:08+101m21158.457261mNRDoraha, Punjab
13CHAChawapail (2)  20:18+1020:20+102m21167.866267mNRLudhiana, Punjab
14KNNKhanna (3)  20:30+1220:32+122m21178.854269mNRNH 1, Punjab
15GVGMandi Gobindgarh (2)  20:41+1220:43+122m21186.949268mNRMandi Gobindgarh, Punjab
16SIRSirhind Junction (3)  20:55+1220:57+122m21196.765271mNRSirhind, Punjab
17RPJRajpura Junction (3)X  21:20+1321:22+142m21221.553272mNRNH-1, Punjab
18UBCAmbala City (3)X  21:45+921:46+111m11242.021273mNRNH-1, Haryana
19UMBAmbala Cantt. Junction (7)X  22:08+1022:20+1012m21249.668278mNRAmbala 133001, Haryana
20RAABarara (2)  22:42+1222:44+122m11274.371279mNRBarara, Haryana
21JUDWJagadhri Workshop (2)  23:02+1423:04+142m11295.643280mNRRailway Workshop Road, Haryana
22JUDYamunanagar-Jagadhri (3)  23:11+1523:13+152m21300.635275mNRYamunanagar, Haryana
23SRESaharanpur Junction (6)X  00:05+200:15+210m32330.768276mNRSaharanpur, Uttar Pradesh
24DBDDeoband (2)  00:45+1300:47+142m12364.976258mNRSaharanpur, Uttar Pradesh
25MOZMuzaffarnagar (3)  01:06+1701:08+182m12388.951247mNRMuzaffarNagar, Uttar Pradesh
26KATKhatauli (2)X  01:34+1301:36+192m--2411.154239mNRKhatauli, Uttar Pradesh
27DRLADaurala (1)  01:56+1801:58+182m12429.061232mNRMeerut, Uttar Pradesh
28MUTMeerut Cantt. (2)  02:09+2002:11+202m12440.229230mNRMeerut, Uttar Pradesh
29MTCMeerut City Junction (6)  02:20+1902:25+175m22444.583229mNRMeerut, Uttar Pradesh
30MDNRModinagar (2)  02:39+2002:41+202m--2464.078221mNRGhaziabad, Uttar Pradesh
31GUHGuldhar (2)  02:55+2102:57+212m--2482.119224mNRGhaziabad, Uttar Pradesh
32GZBGhaziabad Junction (6)  03:28+903:30+102m32491.740217mNRGhaziabad, Uttar Pradesh
33SBBSahibabad Junction (5)  03:40+1403:41+141m--2498.428209mNRGhaziabad, Uttar Pradesh
34NZM•Delhi Hazrat Nizamuddin (7)•X04:15+904:40+925m22514.560209mNRNizamuddin East/Sarai KaleKhan Bus Terminal, Delhi NCT
35BVHBallabgarh (5)X  05:09+905:11+92m42543.342203mNRFaridabad, Haryana
36PWLPalwal (8)X  05:41+105:43+52m42564.585200mNRPalwal, Haryana
37KSVKosi Kalan (3)X  06:13+906:15+92m22607.056189mNCRKosi Kalan, Uttar Pradesh
38CHJChata (4)X  06:26+1006:28+102m12617.369185mNCRChhata, Uttar Pradesh
39MTJMathura Junction (10)X  06:55+1307:00+125m12648.462179mNCRMathura, Uttar Pradesh
40RKMRaja Ki Mandi (4)XO  07:48+2707:50+272m22698.16170mNCRAgra, Uttar Pradesh
41AGCAgra Cantt. (6)X  08:30+508:40+610m12702.179174mNCRAgra, Uttar Pradesh
42DHODholpur Junction (3)X  09:20+1409:22+322m22754.770177mNCRDholpur, Rajasthan
43MRAMorena (3)X  09:45+3709:50+385m12781.672176mNCRMorena, Madhya Pradesh
44BAOBanmorXO  10:06+4010:08+442m--2800.931189mNCRGwalior, Madhya Pradesh
45GWLGwalior Junction (4)XO  10:45+3910:50+415m12820.163214mNCRGwalior, Madhya Pradesh
46DBADabra (3)  11:30+4311:32+432m32862.463204mNCRDabra(District-Gwalior), Madhya Pradesh
47SORSonagirO  11:50+4311:52+472m--2881.330211mNCRDatia, Madhya Pradesh
48DAADatia (2)X  12:15+3912:17+392m--2892.828264mNCRDatia, Madhya Pradesh
49JHSJhansi Junction (7)  13:10+2013:20+2610m--2917.861259mNCRJhansi, Uttar Pradesh
50BABBabina (3)  13:45+3313:47+332m12943.360285mNCRBabina, Uttar Pradesh
51BZYBasai (3)X  13:59+3614:01+372m12955.448287mNCR07522289600(Gate ManMob. - 9452701575), Madhya Pradesh
52TBTTalbahat (4)  14:17+3514:19+382m22968.283314mNCRKhaniyadhana Station Rd, Madhya Pradesh
53LARLalitpur (3)  14:48+4114:50+432m121008.285373mNCRLalitpur, Uttar Pradesh
54DUADhaura (3)XO  15:10+4715:12+482m--21036.528407mNCRDhaura Tanda, Madhya Pradesh
55BINABina Junction (5)X  16:25+2216:30+255m221071.169414mWCRJn Pt - KATNI/GUNA/ BPL/JHS, Madhya Pradesh
56MABAMandi Bamora (3)XO  16:45+3016:47+312m221088.378413mWCRState Highway 14, Madhya Pradesh
57BAQGanj Basoda (4)  17:09+3217:11+332m221116.884416mWCRVidisha, Madhya Pradesh
58BHSVidisha (3)X  17:39+3817:41+382m221156.154432mWCRVidisha, Madhya Pradesh
59BPLBhopal Junction (6)X  18:40+3318:45+355m121209.638497mWCRBhopal, Madhya Pradesh
60HBJBhopal HabibGanj (5)  18:55+3818:57+382m--21215.977496mWCRHabibGanj, Madhya Pradesh
61ODGObaidulla GanjX  19:20+4019:22+422m--21245.533450mWCRObaidullaganj Raisen Dist., Madhya Pradesh
62HBDHoshangabad (4)XO  20:30+3220:32+332m221283.329308mWCRHoshangabad, Madhya Pradesh
63ETItarsi Junction (7)  21:10+3121:15+345m321301.368329mWCRItarsi 461111, Madhya Pradesh
64GDYAGhoradongri (3)X  22:17+4122:19+422m--21371.750410mCRBetul, Madhya Pradesh
65BZUBetul (3)  23:02+4023:05+403m--21407.646644mCRBetul, Madhya Pradesh
66AMLAAmla Junction (5)  23:35+3300:10+2335m--21430.598733mCRAmla Distt. Betul, Madhya Pradesh
67MTYMultai (2)  00:24+2700:26+282m--31453.458762mCRMultai, Madhya Pradesh
68PARPandhurna (2)  01:08+3101:10+312m131494.285481mCRDistt: Chhindwara, Madhya Pradesh
69NRKRNarkher Junction (3)X  01:23+3401:25+342m--31512.566411mCRNarkher, Maharashtra
70KATLKatol (2)X  01:48+3001:50+302m--31537.736415mCRKatol, Maharashtra
71NGPNagpur Junction (9)03:30+603:55+825m631598.548314mCRNagpur 440001, Maharashtra
72KPKamptee (3)X  04:13+1604:15+182m--31612.896290mSECRMH 441001, Maharashtra
73BRDBhandara Road (2)X  04:45+2604:47+272m231660.877266mSECRState Highway 252, Maharashtra
74TMRTumsar Road (3)  05:01+2705:03+272m--31678.781267mSECRBhandara, Maharashtra
75TROTirora (3)  05:18+3105:20+332m--31699.157282mSECRDist Gondiya, Maharashtra
76GGondia Junction (7)X  05:51+2805:56+275m--31728.398316mSECRGondia 441601, Maharashtra
77AGNAmgaon (2)  06:10+3106:12+312m--31751.280317mSECRGondia, Maharashtra
78SKSSalekasa (2)X  06:23+3306:25+332m--31765.956312mSECRRajnandgaon, Chhattisgarh
79DGGDongargarh (2)  07:03+3207:05+332m--31801.663353mSECRDongargarh, Chhattisgarh
80RJNRaj Nandgaon (3)  07:35+2907:40+285m--31833.230313mSECRRajnandgaon, Chhattisgarh
81DURGDurg Junction (6)X  08:40+908:55+915m--31863.660299mSECRPh: 91-788-2322059, Chhattisgarh
82BPHBBhilai Power House (3)X  09:04+1309:06+132m--31872.643312mSECRBhilai, Chhattisgarh
83RRaipur Junction (6)  09:45+1209:55+1710m531900.669297mSECRRaipur, Chhattisgarh
84TLDTilda (3)X  10:28+2610:30+262m--31938.849291mSECRBanjari Rd, Chhattisgarh
85HNHathbandhX  10:43+2410:45+232m--31949.571283mSECRRaipur, Chhattisgarh
86BYTBhatapara (4)X  10:58+2411:00+242m--31964.861270mSECRBanjari Road, Chhattisgarh
87BYLBelhaX  11:30+1811:32+172m--31995.419269mSECRCollege Road, Chhattisgarh
88BSPBilaspur Junction (8)  12:20+11-832011.0-271mSECRBilaspur, Chhattisgarh
Scroll to Top
Scroll to Bottom